sensor_id;sensor_type;location;lat;lon;timestamp;P1;durP1;ratioP1;P2;durP2;ratioP2
45043;SDS011;30784;48.490;9.688;2023-12-20T00:01:47;3.90;;;1.00;;
45043;SDS011;30784;48.490;9.688;2023-12-20T00:04:13;1.55;;;0.60;;
45043;SDS011;30784;48.490;9.688;2023-12-20T00:06:38;1.30;;;0.50;;
45043;SDS011;30784;48.490;9.688;2023-12-20T00:09:04;2.35;;;0.70;;
45043;SDS011;30784;48.490;9.688;2023-12-20T00:11:29;2.42;;;0.70;;
45043;SDS011;30784;48.490;9.688;2023-12-20T00:13:55;2.15;;;0.55;;
45043;SDS011;30784;48.490;9.688;2023-12-20T00:16:20;3.30;;;0.70;;
45043;SDS011;30784;48.490;9.688;2023-12-20T00:18:46;1.95;;;0.50;;
45043;SDS011;30784;48.490;9.688;2023-12-20T00:21:11;0.73;;;0.28;;
45043;SDS011;30784;48.490;9.688;2023-12-20T00:23:37;2.25;;;0.60;;
45043;SDS011;30784;48.490;9.688;2023-12-20T00:26:02;4.95;;;1.30;;
45043;SDS011;30784;48.490;9.688;2023-12-20T00:28:28;5.53;;;1.88;;
45043;SDS011;30784;48.490;9.688;2023-12-20T00:30:53;6.20;;;1.88;;
45043;SDS011;30784;48.490;9.688;2023-12-20T00:33:19;6.18;;;2.08;;
45043;SDS011;30784;48.490;9.688;2023-12-20T00:35:44;4.72;;;1.60;;
45043;SDS011;30784;48.490;9.688;2023-12-20T00:38:10;5.38;;;1.67;;
45043;SDS011;30784;48.490;9.688;2023-12-20T00:40:36;9.50;;;3.35;;
45043;SDS011;30784;48.490;9.688;2023-12-20T00:43:02;5.30;;;1.60;;
45043;SDS011;30784;48.490;9.688;2023-12-20T00:45:28;4.53;;;1.50;;
45043;SDS011;30784;48.490;9.688;2023-12-20T00:47:54;4.07;;;1.20;;
45043;SDS011;30784;48.490;9.688;2023-12-20T00:50:19;4.25;;;1.20;;
45043;SDS011;30784;48.490;9.688;2023-12-20T00:52:46;4.68;;;1.50;;
45043;SDS011;30784;48.490;9.688;2023-12-20T00:55:12;3.60;;;1.30;;
45043;SDS011;30784;48.490;9.688;2023-12-20T00:57:38;4.00;;;1.35;;
45043;SDS011;30784;48.490;9.688;2023-12-20T01:00:03;4.65;;;1.20;;
45043;SDS011;30784;48.490;9.688;2023-12-20T01:02:29;4.38;;;1.27;;
45043;SDS011;30784;48.490;9.688;2023-12-20T01:04:55;3.50;;;1.10;;
45043;SDS011;30784;48.490;9.688;2023-12-20T01:07:20;3.58;;;1.20;;
45043;SDS011;30784;48.490;9.688;2023-12-20T01:09:46;4.68;;;1.52;;
45043;SDS011;30784;48.490;9.688;2023-12-20T01:12:11;5.43;;;1.67;;
45043;SDS011;30784;48.490;9.688;2023-12-20T01:14:37;5.50;;;1.75;;
45043;SDS011;30784;48.490;9.688;2023-12-20T01:17:04;4.18;;;1.45;;
45043;SDS011;30784;48.490;9.688;2023-12-20T01:19:30;4.07;;;1.30;;
45043;SDS011;30784;48.490;9.688;2023-12-20T01:21:55;4.43;;;1.30;;
45043;SDS011;30784;48.490;9.688;2023-12-20T01:24:21;3.05;;;1.10;;
45043;SDS011;30784;48.490;9.688;2023-12-20T01:26:46;3.50;;;1.13;;
45043;SDS011;30784;48.490;9.688;2023-12-20T01:29:12;3.13;;;1.10;;
45043;SDS011;30784;48.490;9.688;2023-12-20T01:31:39;4.45;;;1.00;;
45043;SDS011;30784;48.490;9.688;2023-12-20T01:34:05;3.45;;;0.90;;
45043;SDS011;30784;48.490;9.688;2023-12-20T01:36:31;2.97;;;0.90;;
45043;SDS011;30784;48.490;9.688;2023-12-20T01:38:56;3.35;;;0.90;;
45043;SDS011;30784;48.490;9.688;2023-12-20T01:41:22;3.28;;;1.00;;
45043;SDS011;30784;48.490;9.688;2023-12-20T01:43:47;2.92;;;1.10;;
45043;SDS011;30784;48.490;9.688;2023-12-20T01:46:13;2.90;;;1.10;;
45043;SDS011;30784;48.490;9.688;2023-12-20T01:48:40;3.35;;;0.90;;
45043;SDS011;30784;48.490;9.688;2023-12-20T01:51:06;3.60;;;1.33;;
45043;SDS011;30784;48.490;9.688;2023-12-20T01:53:31;4.03;;;1.25;;
45043;SDS011;30784;48.490;9.688;2023-12-20T01:55:57;3.90;;;1.30;;
45043;SDS011;30784;48.490;9.688;2023-12-20T01:58:24;2.75;;;0.90;;
45043;SDS011;30784;48.490;9.688;2023-12-20T02:00:50;4.70;;;1.05;;
45043;SDS011;30784;48.490;9.688;2023-12-20T02:03:16;4.93;;;1.70;;
45043;SDS011;30784;48.490;9.688;2023-12-20T02:05:42;5.60;;;1.30;;
45043;SDS011;30784;48.490;9.688;2023-12-20T02:08:09;3.63;;;1.13;;
45043;SDS011;30784;48.490;9.688;2023-12-20T02:10:35;3.25;;;1.10;;
45043;SDS011;30784;48.490;9.688;2023-12-20T02:13:00;3.45;;;1.10;;
45043;SDS011;30784;48.490;9.688;2023-12-20T02:15:26;3.50;;;1.10;;
45043;SDS011;30784;48.490;9.688;2023-12-20T02:17:51;4.20;;;1.40;;
45043;SDS011;30784;48.490;9.688;2023-12-20T02:20:17;3.58;;;1.08;;
45043;SDS011;30784;48.490;9.688;2023-12-20T02:22:43;4.55;;;1.25;;
45043;SDS011;30784;48.490;9.688;2023-12-20T02:25:08;3.28;;;1.10;;
45043;SDS011;30784;48.490;9.688;2023-12-20T02:27:34;3.30;;;1.08;;
45043;SDS011;30784;48.490;9.688;2023-12-20T02:30:00;3.63;;;1.00;;
45043;SDS011;30784;48.490;9.688;2023-12-20T02:32:25;3.47;;;1.02;;
45043;SDS011;30784;48.490;9.688;2023-12-20T02:34:51;3.97;;;1.17;;
45043;SDS011;30784;48.490;9.688;2023-12-20T02:37:18;2.60;;;0.85;;
45043;SDS011;30784;48.490;9.688;2023-12-20T02:39:44;3.25;;;0.82;;
45043;SDS011;30784;48.490;9.688;2023-12-20T02:42:09;2.67;;;0.80;;
45043;SDS011;30784;48.490;9.688;2023-12-20T02:44:35;3.15;;;0.70;;
45043;SDS011;30784;48.490;9.688;2023-12-20T02:47:01;2.70;;;0.65;;
45043;SDS011;30784;48.490;9.688;2023-12-20T02:49:27;1.73;;;0.40;;
45043;SDS011;30784;48.490;9.688;2023-12-20T02:51:52;1.58;;;0.35;;
45043;SDS011;30784;48.490;9.688;2023-12-20T02:54:18;0.73;;;0.38;;
45043;SDS011;30784;48.490;9.688;2023-12-20T02:56:43;0.90;;;0.38;;
45043;SDS011;30784;48.490;9.688;2023-12-20T02:59:09;1.15;;;0.32;;
45043;SDS011;30784;48.490;9.688;2023-12-20T03:01:34;1.38;;;0.30;;
45043;SDS011;30784;48.490;9.688;2023-12-20T03:04:06;1.48;;;0.30;;
45043;SDS011;30784;48.490;9.688;2023-12-20T03:06:31;0.35;;;0.10;;
45043;SDS011;30784;48.490;9.688;2023-12-20T03:08:57;0.88;;;0.20;;
45043;SDS011;30784;48.490;9.688;2023-12-20T03:11:26;0.40;;;0.10;;
45043;SDS011;30784;48.490;9.688;2023-12-20T03:13:52;0.88;;;0.30;;
45043;SDS011;30784;48.490;9.688;2023-12-20T03:16:17;0.93;;;0.20;;
45043;SDS011;30784;48.490;9.688;2023-12-20T03:18:43;0.47;;;0.20;;
45043;SDS011;30784;48.490;9.688;2023-12-20T03:21:09;0.65;;;0.20;;
45043;SDS011;30784;48.490;9.688;2023-12-20T03:23:34;2.80;;;0.22;;
45043;SDS011;30784;48.490;9.688;2023-12-20T03:26:00;0.25;;;0.08;;
45043;SDS011;30784;48.490;9.688;2023-12-20T03:28:26;0.50;;;0.20;;
45043;SDS011;30784;48.490;9.688;2023-12-20T03:30:52;0.22;;;0.10;;
45043;SDS011;30784;48.490;9.688;2023-12-20T03:33:18;1.15;;;0.20;;
45043;SDS011;30784;48.490;9.688;2023-12-20T03:35:44;0.17;;;0.05;;
45043;SDS011;30784;48.490;9.688;2023-12-20T03:38:09;0.28;;;0.03;;
45043;SDS011;30784;48.490;9.688;2023-12-20T03:40:35;1.08;;;0.20;;
45043;SDS011;30784;48.490;9.688;2023-12-20T03:43:00;0.70;;;0.10;;
45043;SDS011;30784;48.490;9.688;2023-12-20T03:45:26;0.50;;;0.10;;
45043;SDS011;30784;48.490;9.688;2023-12-20T03:47:51;0.75;;;0.10;;
45043;SDS011;30784;48.490;9.688;2023-12-20T03:50:24;0.25;;;0.00;;
45043;SDS011;30784;48.490;9.688;2023-12-20T03:52:50;0.57;;;0.20;;
45043;SDS011;30784;48.490;9.688;2023-12-20T03:55:16;0.20;;;0.10;;
45043;SDS011;30784;48.490;9.688;2023-12-20T03:57:42;0.00;;;0.00;;
45043;SDS011;30784;48.490;9.688;2023-12-20T04:00:07;0.00;;;0.00;;
45043;SDS011;30784;48.490;9.688;2023-12-20T04:02:36;0.30;;;0.00;;
45043;SDS011;30784;48.490;9.688;2023-12-20T04:05:05;0.10;;;0.10;;
45043;SDS011;30784;48.490;9.688;2023-12-20T04:07:31;0.00;;;0.00;;
45043;SDS011;30784;48.490;9.688;2023-12-20T04:09:57;0.05;;;0.00;;
45043;SDS011;30784;48.490;9.688;2023-12-20T04:12:23;0.47;;;0.10;;
45043;SDS011;30784;48.490;9.688;2023-12-20T04:14:49;0.43;;;0.10;;
45043;SDS011;30784;48.490;9.688;2023-12-20T04:17:14;0.10;;;0.00;;
45043;SDS011;30784;48.490;9.688;2023-12-20T04:19:43;0.75;;;0.10;;
45043;SDS011;30784;48.490;9.688;2023-12-20T04:22:09;0.20;;;0.00;;
45043;SDS011;30784;48.490;9.688;2023-12-20T04:24:34;0.52;;;0.00;;
45043;SDS011;30784;48.490;9.688;2023-12-20T04:27:01;0.20;;;0.10;;
45043;SDS011;30784;48.490;9.688;2023-12-20T04:29:26;1.48;;;0.20;;
45043;SDS011;30784;48.490;9.688;2023-12-20T04:31:52;0.00;;;0.00;;
45043;SDS011;30784;48.490;9.688;2023-12-20T04:34:17;0.20;;;0.00;;
45043;SDS011;30784;48.490;9.688;2023-12-20T04:36:43;0.40;;;0.10;;
45043;SDS011;30784;48.490;9.688;2023-12-20T04:39:09;0.00;;;0.00;;
45043;SDS011;30784;48.490;9.688;2023-12-20T04:41:36;0.10;;;0.00;;
45043;SDS011;30784;48.490;9.688;2023-12-20T04:44:01;0.10;;;0.00;;
45043;SDS011;30784;48.490;9.688;2023-12-20T04:46:27;0.75;;;0.10;;
45043;SDS011;30784;48.490;9.688;2023-12-20T04:48:53;0.22;;;0.13;;
45043;SDS011;30784;48.490;9.688;2023-12-20T04:51:18;0.98;;;0.10;;
45043;SDS011;30784;48.490;9.688;2023-12-20T04:53:44;0.43;;;0.10;;
45043;SDS011;30784;48.490;9.688;2023-12-20T04:56:09;0.20;;;0.03;;
45043;SDS011;30784;48.490;9.688;2023-12-20T04:58:35;0.57;;;0.13;;
45043;SDS011;30784;48.490;9.688;2023-12-20T05:01:01;0.73;;;0.10;;
45043;SDS011;30784;48.490;9.688;2023-12-20T05:03:28;0.25;;;0.10;;
45043;SDS011;30784;48.490;9.688;2023-12-20T05:05:53;0.68;;;0.22;;
45043;SDS011;30784;48.490;9.688;2023-12-20T05:08:19;0.45;;;0.20;;
45043;SDS011;30784;48.490;9.688;2023-12-20T05:10:45;0.20;;;0.10;;
45043;SDS011;30784;48.490;9.688;2023-12-20T05:13:10;0.40;;;0.20;;
45043;SDS011;30784;48.490;9.688;2023-12-20T05:15:36;0.60;;;0.20;;
45043;SDS011;30784;48.490;9.688;2023-12-20T05:18:01;0.35;;;0.10;;
45043;SDS011;30784;48.490;9.688;2023-12-20T05:20:27;0.30;;;0.10;;
45043;SDS011;30784;48.490;9.688;2023-12-20T05:22:53;0.08;;;0.00;;
45043;SDS011;30784;48.490;9.688;2023-12-20T05:25:18;0.17;;;0.03;;
45043;SDS011;30784;48.490;9.688;2023-12-20T05:27:44;0.52;;;0.15;;
45043;SDS011;30784;48.490;9.688;2023-12-20T05:30:09;0.22;;;0.10;;
45043;SDS011;30784;48.490;9.688;2023-12-20T05:32:35;0.40;;;0.10;;
45043;SDS011;30784;48.490;9.688;2023-12-20T05:35:01;0.40;;;0.10;;
45043;SDS011;30784;48.490;9.688;2023-12-20T05:37:26;0.38;;;0.17;;
45043;SDS011;30784;48.490;9.688;2023-12-20T05:39:52;0.40;;;0.10;;
45043;SDS011;30784;48.490;9.688;2023-12-20T05:42:17;0.30;;;0.10;;
45043;SDS011;30784;48.490;9.688;2023-12-20T05:44:43;1.00;;;0.22;;
45043;SDS011;30784;48.490;9.688;2023-12-20T05:47:08;0.55;;;0.10;;
45043;SDS011;30784;48.490;9.688;2023-12-20T05:49:34;3.20;;;0.80;;
45043;SDS011;30784;48.490;9.688;2023-12-20T05:51:59;1.88;;;0.35;;
45043;SDS011;30784;48.490;9.688;2023-12-20T05:54:25;1.08;;;0.20;;
45043;SDS011;30784;48.490;9.688;2023-12-20T05:56:50;0.52;;;0.20;;
45043;SDS011;30784;48.490;9.688;2023-12-20T05:59:16;0.20;;;0.10;;
45043;SDS011;30784;48.490;9.688;2023-12-20T06:01:41;0.30;;;0.10;;
45043;SDS011;30784;48.490;9.688;2023-12-20T06:04:07;0.20;;;0.10;;
45043;SDS011;30784;48.490;9.688;2023-12-20T06:06:32;0.73;;;0.10;;
45043;SDS011;30784;48.490;9.688;2023-12-20T06:08:58;0.43;;;0.10;;
45043;SDS011;30784;48.490;9.688;2023-12-20T06:11:23;0.10;;;0.10;;
45043;SDS011;30784;48.490;9.688;2023-12-20T06:13:49;1.13;;;0.10;;
45043;SDS011;30784;48.490;9.688;2023-12-20T06:16:17;0.88;;;0.22;;
45043;SDS011;30784;48.490;9.688;2023-12-20T06:18:43;1.27;;;0.10;;
45043;SDS011;30784;48.490;9.688;2023-12-20T06:21:09;0.65;;;0.20;;
45043;SDS011;30784;48.490;9.688;2023-12-20T06:23:37;2.05;;;0.73;;
45043;SDS011;30784;48.490;9.688;2023-12-20T06:26:03;0.85;;;0.40;;
45043;SDS011;30784;48.490;9.688;2023-12-20T06:28:29;1.65;;;0.50;;
45043;SDS011;30784;48.490;9.688;2023-12-20T06:30:54;1.92;;;0.50;;
45043;SDS011;30784;48.490;9.688;2023-12-20T06:33:21;1.38;;;0.30;;
45043;SDS011;30784;48.490;9.688;2023-12-20T06:35:47;1.35;;;0.40;;
45043;SDS011;30784;48.490;9.688;2023-12-20T06:38:13;0.82;;;0.25;;
45043;SDS011;30784;48.490;9.688;2023-12-20T06:40:39;0.82;;;0.30;;
45043;SDS011;30784;48.490;9.688;2023-12-20T06:43:04;1.27;;;0.30;;
45043;SDS011;30784;48.490;9.688;2023-12-20T06:45:31;1.05;;;0.10;;
45043;SDS011;30784;48.490;9.688;2023-12-20T06:47:57;0.77;;;0.30;;
45043;SDS011;30784;48.490;9.688;2023-12-20T06:50:23;1.17;;;0.40;;
45043;SDS011;30784;48.490;9.688;2023-12-20T06:52:49;2.22;;;0.60;;
45043;SDS011;30784;48.490;9.688;2023-12-20T06:55:14;2.30;;;0.55;;
45043;SDS011;30784;48.490;9.688;2023-12-20T06:57:40;0.85;;;0.22;;
45043;SDS011;30784;48.490;9.688;2023-12-20T07:00:06;0.35;;;0.10;;
45043;SDS011;30784;48.490;9.688;2023-12-20T07:02:33;0.88;;;0.30;;
45043;SDS011;30784;48.490;9.688;2023-12-20T07:04:59;0.98;;;0.32;;
45043;SDS011;30784;48.490;9.688;2023-12-20T07:07:24;0.22;;;0.08;;
45043;SDS011;30784;48.490;9.688;2023-12-20T07:09:51;0.57;;;0.20;;
45043;SDS011;30784;48.490;9.688;2023-12-20T07:12:16;0.68;;;0.17;;
45043;SDS011;30784;48.490;9.688;2023-12-20T07:14:44;0.50;;;0.17;;
45043;SDS011;30784;48.490;9.688;2023-12-20T07:17:10;0.60;;;0.20;;
45043;SDS011;30784;48.490;9.688;2023-12-20T07:19:38;0.77;;;0.20;;
45043;SDS011;30784;48.490;9.688;2023-12-20T07:22:05;1.80;;;0.25;;
45043;SDS011;30784;48.490;9.688;2023-12-20T07:24:31;0.10;;;0.10;;
45043;SDS011;30784;48.490;9.688;2023-12-20T07:26:57;0.25;;;0.20;;
45043;SDS011;30784;48.490;9.688;2023-12-20T07:29:22;1.45;;;0.20;;
45043;SDS011;30784;48.490;9.688;2023-12-20T07:31:48;1.20;;;0.28;;
45043;SDS011;30784;48.490;9.688;2023-12-20T07:34:13;2.28;;;0.55;;
45043;SDS011;30784;48.490;9.688;2023-12-20T07:36:39;1.30;;;0.30;;
45043;SDS011;30784;48.490;9.688;2023-12-20T07:39:04;0.38;;;0.20;;
45043;SDS011;30784;48.490;9.688;2023-12-20T07:41:30;0.52;;;0.15;;
45043;SDS011;30784;48.490;9.688;2023-12-20T07:43:55;0.73;;;0.25;;
45043;SDS011;30784;48.490;9.688;2023-12-20T07:46:21;0.90;;;0.15;;
45043;SDS011;30784;48.490;9.688;2023-12-20T07:48:50;1.10;;;0.20;;
45043;SDS011;30784;48.490;9.688;2023-12-20T07:51:16;3.58;;;1.10;;
45043;SDS011;30784;48.490;9.688;2023-12-20T07:53:41;4.10;;;0.93;;
45043;SDS011;30784;48.490;9.688;2023-12-20T07:56:13;3.30;;;1.00;;
45043;SDS011;30784;48.490;9.688;2023-12-20T07:58:40;2.63;;;0.82;;
45043;SDS011;30784;48.490;9.688;2023-12-20T08:01:05;3.50;;;0.68;;
45043;SDS011;30784;48.490;9.688;2023-12-20T08:03:31;2.28;;;0.60;;
45043;SDS011;30784;48.490;9.688;2023-12-20T08:05:57;2.88;;;0.50;;
45043;SDS011;30784;48.490;9.688;2023-12-20T08:08:24;2.85;;;0.52;;
45043;SDS011;30784;48.490;9.688;2023-12-20T08:10:50;2.78;;;0.77;;
45043;SDS011;30784;48.490;9.688;2023-12-20T08:13:15;4.10;;;0.93;;
45043;SDS011;30784;48.490;9.688;2023-12-20T08:15:41;1.17;;;0.45;;
45043;SDS011;30784;48.490;9.688;2023-12-20T08:18:07;0.68;;;0.38;;
45043;SDS011;30784;48.490;9.688;2023-12-20T08:20:32;1.38;;;0.50;;
45043;SDS011;30784;48.490;9.688;2023-12-20T08:22:58;2.35;;;0.80;;
45043;SDS011;30784;48.490;9.688;2023-12-20T08:25:23;2.58;;;0.80;;
45043;SDS011;30784;48.490;9.688;2023-12-20T08:27:49;1.63;;;0.70;;
45043;SDS011;30784;48.490;9.688;2023-12-20T08:30:14;0.52;;;0.30;;
45043;SDS011;30784;48.490;9.688;2023-12-20T08:32:42;0.82;;;0.30;;
45043;SDS011;30784;48.490;9.688;2023-12-20T08:35:08;1.15;;;0.30;;
45043;SDS011;30784;48.490;9.688;2023-12-20T08:37:33;0.43;;;0.10;;
45043;SDS011;30784;48.490;9.688;2023-12-20T08:40:00;1.65;;;0.50;;
45043;SDS011;30784;48.490;9.688;2023-12-20T08:42:26;2.25;;;0.55;;
45043;SDS011;30784;48.490;9.688;2023-12-20T08:44:56;2.67;;;0.60;;
45043;SDS011;30784;48.490;9.688;2023-12-20T08:47:22;3.30;;;0.90;;
45043;SDS011;30784;48.490;9.688;2023-12-20T08:49:47;2.05;;;0.50;;
45043;SDS011;30784;48.490;9.688;2023-12-20T08:52:13;2.30;;;0.60;;
45043;SDS011;30784;48.490;9.688;2023-12-20T08:54:38;1.88;;;0.55;;
45043;SDS011;30784;48.490;9.688;2023-12-20T08:57:04;1.85;;;0.60;;
45043;SDS011;30784;48.490;9.688;2023-12-20T08:59:31;3.63;;;0.90;;
45043;SDS011;30784;48.490;9.688;2023-12-20T09:01:57;2.58;;;0.77;;
45043;SDS011;30784;48.490;9.688;2023-12-20T09:04:23;4.85;;;1.52;;
45043;SDS011;30784;48.490;9.688;2023-12-20T09:06:48;2.92;;;0.73;;
45043;SDS011;30784;48.490;9.688;2023-12-20T09:09:14;3.10;;;0.90;;
45043;SDS011;30784;48.490;9.688;2023-12-20T09:11:40;2.60;;;0.85;;
45043;SDS011;30784;48.490;9.688;2023-12-20T09:14:05;1.90;;;0.80;;
45043;SDS011;30784;48.490;9.688;2023-12-20T09:16:31;1.42;;;0.50;;
45043;SDS011;30784;48.490;9.688;2023-12-20T09:18:57;2.15;;;0.65;;
45043;SDS011;30784;48.490;9.688;2023-12-20T09:21:23;2.22;;;0.70;;
45043;SDS011;30784;48.490;9.688;2023-12-20T09:23:49;1.65;;;0.50;;
45043;SDS011;30784;48.490;9.688;2023-12-20T09:26:14;2.90;;;0.60;;
45043;SDS011;30784;48.490;9.688;2023-12-20T09:28:40;1.85;;;0.50;;
45043;SDS011;30784;48.490;9.688;2023-12-20T09:31:06;1.48;;;0.60;;
45043;SDS011;30784;48.490;9.688;2023-12-20T09:33:32;1.85;;;0.60;;
45043;SDS011;30784;48.490;9.688;2023-12-20T09:35:57;2.58;;;0.63;;
45043;SDS011;30784;48.490;9.688;2023-12-20T09:38:23;1.73;;;0.65;;
45043;SDS011;30784;48.490;9.688;2023-12-20T09:40:49;0.90;;;0.50;;
45043;SDS011;30784;48.490;9.688;2023-12-20T09:43:15;1.20;;;0.40;;
45043;SDS011;30784;48.490;9.688;2023-12-20T09:45:45;1.48;;;0.57;;
45043;SDS011;30784;48.490;9.688;2023-12-20T09:48:12;2.20;;;0.52;;
45043;SDS011;30784;48.490;9.688;2023-12-20T09:50:39;1.10;;;0.43;;
45043;SDS011;30784;48.490;9.688;2023-12-20T09:53:05;1.38;;;0.50;;
45043;SDS011;30784;48.490;9.688;2023-12-20T09:55:34;1.88;;;0.40;;
45043;SDS011;30784;48.490;9.688;2023-12-20T09:58:01;1.80;;;0.50;;
45043;SDS011;30784;48.490;9.688;2023-12-20T10:00:27;1.35;;;0.43;;
45043;SDS011;30784;48.490;9.688;2023-12-20T10:02:59;0.55;;;0.20;;
45043;SDS011;30784;48.490;9.688;2023-12-20T10:05:29;0.88;;;0.30;;
45043;SDS011;30784;48.490;9.688;2023-12-20T10:07:56;1.65;;;0.40;;
45043;SDS011;30784;48.490;9.688;2023-12-20T10:10:22;1.52;;;0.50;;
45043;SDS011;30784;48.490;9.688;2023-12-20T10:13:04;1.30;;;0.40;;
45043;SDS011;30784;48.490;9.688;2023-12-20T10:15:32;4.30;;;0.90;;
45043;SDS011;30784;48.490;9.688;2023-12-20T10:17:58;2.40;;;0.70;;
45043;SDS011;30784;48.490;9.688;2023-12-20T10:20:24;3.70;;;0.90;;
45043;SDS011;30784;48.490;9.688;2023-12-20T10:22:50;3.55;;;0.90;;
45043;SDS011;30784;48.490;9.688;2023-12-20T10:25:18;4.65;;;1.05;;
45043;SDS011;30784;48.490;9.688;2023-12-20T10:27:44;4.43;;;1.10;;
45043;SDS011;30784;48.490;9.688;2023-12-20T10:30:10;5.07;;;1.00;;
45043;SDS011;30784;48.490;9.688;2023-12-20T10:32:36;4.03;;;1.10;;
45043;SDS011;30784;48.490;9.688;2023-12-20T10:35:01;4.70;;;1.13;;
45043;SDS011;30784;48.490;9.688;2023-12-20T10:37:27;3.55;;;0.93;;
45043;SDS011;30784;48.490;9.688;2023-12-20T10:39:53;5.32;;;1.10;;
45043;SDS011;30784;48.490;9.688;2023-12-20T10:42:22;3.70;;;0.85;;
45043;SDS011;30784;48.490;9.688;2023-12-20T10:44:51;5.13;;;1.27;;
45043;SDS011;30784;48.490;9.688;2023-12-20T10:47:18;5.32;;;1.17;;
45043;SDS011;30784;48.490;9.688;2023-12-20T10:49:44;5.78;;;1.27;;
45043;SDS011;30784;48.490;9.688;2023-12-20T10:52:11;5.15;;;1.20;;
45043;SDS011;30784;48.490;9.688;2023-12-20T10:54:37;4.60;;;0.98;;
45043;SDS011;30784;48.490;9.688;2023-12-20T10:57:06;5.55;;;1.20;;
45043;SDS011;30784;48.490;9.688;2023-12-20T10:59:38;3.85;;;1.00;;
45043;SDS011;30784;48.490;9.688;2023-12-20T11:02:05;4.38;;;1.00;;
45043;SDS011;30784;48.490;9.688;2023-12-20T11:04:39;4.70;;;1.38;;
45043;SDS011;30784;48.490;9.688;2023-12-20T11:13:21;5.32;;;1.23;;
45043;SDS011;30784;48.490;9.688;2023-12-20T11:15:51;4.30;;;1.10;;
45043;SDS011;30784;48.490;9.688;2023-12-20T11:18:17;4.72;;;1.00;;
45043;SDS011;30784;48.490;9.688;2023-12-20T11:20:42;4.43;;;1.20;;
45043;SDS011;30784;48.490;9.688;2023-12-20T11:23:08;5.22;;;1.10;;
45043;SDS011;30784;48.490;9.688;2023-12-20T11:28:32;5.90;;;1.02;;
45043;SDS011;30784;48.490;9.688;2023-12-20T11:30:58;4.85;;;1.20;;
45043;SDS011;30784;48.490;9.688;2023-12-20T11:33:26;3.83;;;0.98;;
45043;SDS011;30784;48.490;9.688;2023-12-20T11:35:55;5.78;;;1.45;;
45043;SDS011;30784;48.490;9.688;2023-12-20T11:38:21;7.28;;;1.48;;
45043;SDS011;30784;48.490;9.688;2023-12-20T11:40:48;6.18;;;1.48;;
45043;SDS011;30784;48.490;9.688;2023-12-20T11:46:02;4.05;;;1.27;;
45043;SDS011;30784;48.490;9.688;2023-12-20T11:48:31;6.85;;;2.50;;
45043;SDS011;30784;48.490;9.688;2023-12-20T11:50:57;7.10;;;2.92;;
45043;SDS011;30784;48.490;9.688;2023-12-20T11:53:23;7.43;;;2.08;;
45043;SDS011;30784;48.490;9.688;2023-12-20T11:55:49;6.10;;;1.60;;
45043;SDS011;30784;48.490;9.688;2023-12-20T11:58:14;5.28;;;1.50;;
45043;SDS011;30784;48.490;9.688;2023-12-20T12:00:41;4.35;;;1.13;;
45043;SDS011;30784;48.490;9.688;2023-12-20T12:03:08;5.70;;;1.23;;
45043;SDS011;30784;48.490;9.688;2023-12-20T12:05:34;4.32;;;1.13;;
45043;SDS011;30784;48.490;9.688;2023-12-20T12:08:00;3.95;;;1.13;;
45043;SDS011;30784;48.490;9.688;2023-12-20T12:10:26;4.85;;;1.30;;
45043;SDS011;30784;48.490;9.688;2023-12-20T12:12:52;8.73;;;2.90;;
45043;SDS011;30784;48.490;9.688;2023-12-20T12:15:17;10.27;;;4.18;;
45043;SDS011;30784;48.490;9.688;2023-12-20T12:17:43;11.88;;;5.10;;
45043;SDS011;30784;48.490;9.688;2023-12-20T12:20:09;8.40;;;3.70;;
45043;SDS011;30784;48.490;9.688;2023-12-20T12:22:35;6.85;;;2.70;;
45043;SDS011;30784;48.490;9.688;2023-12-20T12:25:11;7.85;;;2.17;;
45043;SDS011;30784;48.490;9.688;2023-12-20T12:27:39;8.82;;;1.85;;
45043;SDS011;30784;48.490;9.688;2023-12-20T12:30:08;7.40;;;1.70;;
45043;SDS011;30784;48.490;9.688;2023-12-20T12:32:35;5.57;;;1.40;;
45043;SDS011;30784;48.490;9.688;2023-12-20T12:35:02;5.35;;;1.25;;
45043;SDS011;30784;48.490;9.688;2023-12-20T12:39:58;14.57;;;4.97;;
45043;SDS011;30784;48.490;9.688;2023-12-20T12:42:24;9.40;;;2.40;;
45043;SDS011;30784;48.490;9.688;2023-12-20T12:44:53;8.27;;;2.47;;
45043;SDS011;30784;48.490;9.688;2023-12-20T12:47:19;9.68;;;3.03;;
45043;SDS011;30784;48.490;9.688;2023-12-20T12:49:44;8.70;;;2.88;;
45043;SDS011;30784;48.490;9.688;2023-12-20T12:52:10;8.70;;;3.50;;
45043;SDS011;30784;48.490;9.688;2023-12-20T12:54:35;7.55;;;2.03;;
45043;SDS011;30784;48.490;9.688;2023-12-20T12:57:01;6.68;;;1.90;;
45043;SDS011;30784;48.490;9.688;2023-12-20T12:59:27;5.47;;;1.70;;
45043;SDS011;30784;48.490;9.688;2023-12-20T13:01:52;5.70;;;1.60;;
45043;SDS011;30784;48.490;9.688;2023-12-20T13:04:18;6.25;;;1.35;;
45043;SDS011;30784;48.490;9.688;2023-12-20T13:06:44;5.40;;;0.93;;
45043;SDS011;30784;48.490;9.688;2023-12-20T13:09:09;6.05;;;1.10;;
45043;SDS011;30784;48.490;9.688;2023-12-20T13:11:35;6.82;;;1.50;;
45043;SDS011;30784;48.490;9.688;2023-12-20T13:14:00;6.32;;;1.50;;
45043;SDS011;30784;48.490;9.688;2023-12-20T13:16:26;5.20;;;1.25;;
45043;SDS011;30784;48.490;9.688;2023-12-20T13:18:52;7.00;;;1.40;;
45043;SDS011;30784;48.490;9.688;2023-12-20T13:21:17;8.35;;;1.90;;
45043;SDS011;30784;48.490;9.688;2023-12-20T13:23:43;8.90;;;1.73;;
45043;SDS011;30784;48.490;9.688;2023-12-20T13:26:08;9.40;;;2.17;;
45043;SDS011;30784;48.490;9.688;2023-12-20T13:28:34;7.85;;;1.60;;
45043;SDS011;30784;48.490;9.688;2023-12-20T13:30:59;6.45;;;1.58;;
45043;SDS011;30784;48.490;9.688;2023-12-20T13:33:25;9.60;;;3.03;;
45043;SDS011;30784;48.490;9.688;2023-12-20T13:35:50;11.15;;;2.97;;
45043;SDS011;30784;48.490;9.688;2023-12-20T13:38:16;11.00;;;2.65;;
45043;SDS011;30784;48.490;9.688;2023-12-20T13:40:42;6.78;;;1.80;;
45043;SDS011;30784;48.490;9.688;2023-12-20T13:43:08;5.55;;;1.30;;
45043;SDS011;30784;48.490;9.688;2023-12-20T13:45:35;8.07;;;2.00;;
45043;SDS011;30784;48.490;9.688;2023-12-20T13:48:01;5.38;;;1.10;;
45043;SDS011;30784;48.490;9.688;2023-12-20T13:50:26;8.50;;;1.15;;
45043;SDS011;30784;48.490;9.688;2023-12-20T13:52:52;4.78;;;0.90;;
45043;SDS011;30784;48.490;9.688;2023-12-20T13:55:17;7.05;;;1.00;;
45043;SDS011;30784;48.490;9.688;2023-12-20T13:57:46;7.77;;;1.83;;
45043;SDS011;30784;48.490;9.688;2023-12-20T14:00:13;8.70;;;2.53;;
45043;SDS011;30784;48.490;9.688;2023-12-20T14:02:40;10.40;;;2.10;;
45043;SDS011;30784;48.490;9.688;2023-12-20T14:05:06;6.95;;;1.25;;
45043;SDS011;30784;48.490;9.688;2023-12-20T14:07:32;7.95;;;2.00;;
45043;SDS011;30784;48.490;9.688;2023-12-20T14:09:57;9.30;;;2.97;;
45043;SDS011;30784;48.490;9.688;2023-12-20T14:12:24;8.82;;;2.40;;
45043;SDS011;30784;48.490;9.688;2023-12-20T14:14:49;10.27;;;2.10;;
45043;SDS011;30784;48.490;9.688;2023-12-20T14:17:15;17.27;;;4.70;;
45043;SDS011;30784;48.490;9.688;2023-12-20T14:19:41;15.95;;;3.90;;
45043;SDS011;30784;48.490;9.688;2023-12-20T14:22:06;11.55;;;3.88;;
45043;SDS011;30784;48.490;9.688;2023-12-20T14:24:32;11.25;;;3.97;;
45043;SDS011;30784;48.490;9.688;2023-12-20T14:26:57;9.35;;;2.50;;
45043;SDS011;30784;48.490;9.688;2023-12-20T14:29:23;11.40;;;2.85;;
45043;SDS011;30784;48.490;9.688;2023-12-20T14:31:49;8.40;;;2.22;;
45043;SDS011;30784;48.490;9.688;2023-12-20T14:34:14;8.60;;;2.78;;
45043;SDS011;30784;48.490;9.688;2023-12-20T14:36:40;9.70;;;1.50;;
45043;SDS011;30784;48.490;9.688;2023-12-20T14:39:06;6.38;;;1.30;;
45043;SDS011;30784;48.490;9.688;2023-12-20T14:41:33;7.75;;;1.33;;
45043;SDS011;30784;48.490;9.688;2023-12-20T14:43:59;5.90;;;1.02;;
45043;SDS011;30784;48.490;9.688;2023-12-20T14:46:24;4.53;;;0.88;;
45043;SDS011;30784;48.490;9.688;2023-12-20T14:48:50;7.85;;;1.00;;
45043;SDS011;30784;48.490;9.688;2023-12-20T14:51:16;6.30;;;1.13;;
45043;SDS011;30784;48.490;9.688;2023-12-20T14:53:41;6.38;;;1.45;;
45043;SDS011;30784;48.490;9.688;2023-12-20T14:56:07;12.77;;;3.80;;